sensor_id;sensor_type;location;lat;lon;timestamp;P1;durP1;ratioP1;P2;durP2;ratioP2
69970;SDS011;57301;50.328;8.542;2023-08-21T00:00:29;18.10;;;13.40;;
69970;SDS011;57301;50.328;8.542;2023-08-21T00:02:55;13.68;;;9.60;;
69970;SDS011;57301;50.328;8.542;2023-08-21T00:05:22;12.18;;;8.20;;
69970;SDS011;57301;50.328;8.542;2023-08-21T00:07:48;10.82;;;8.65;;
69970;SDS011;57301;50.328;8.542;2023-08-21T00:10:17;13.90;;;10.47;;
69970;SDS011;57301;50.328;8.542;2023-08-21T00:12:43;11.57;;;9.05;;
69970;SDS011;57301;50.328;8.542;2023-08-21T00:15:10;13.13;;;8.35;;
69970;SDS011;57301;50.328;8.542;2023-08-21T00:17:36;13.52;;;9.27;;
69970;SDS011;57301;50.328;8.542;2023-08-21T00:20:03;12.00;;;9.52;;
69970;SDS011;57301;50.328;8.542;2023-08-21T00:22:30;14.70;;;9.00;;
69970;SDS011;57301;50.328;8.542;2023-08-21T00:24:56;13.52;;;8.80;;
69970;SDS011;57301;50.328;8.542;2023-08-21T00:27:23;13.98;;;10.18;;
69970;SDS011;57301;50.328;8.542;2023-08-21T00:29:49;14.70;;;9.18;;
69970;SDS011;57301;50.328;8.542;2023-08-21T00:32:16;14.27;;;9.40;;
69970;SDS011;57301;50.328;8.542;2023-08-21T00:34:42;15.37;;;9.80;;
69970;SDS011;57301;50.328;8.542;2023-08-21T00:37:09;14.48;;;9.98;;
69970;SDS011;57301;50.328;8.542;2023-08-21T00:39:37;15.93;;;9.90;;
69970;SDS011;57301;50.328;8.542;2023-08-21T00:42:03;14.38;;;9.02;;
69970;SDS011;57301;50.328;8.542;2023-08-21T00:44:30;12.70;;;9.60;;
69970;SDS011;57301;50.328;8.542;2023-08-21T00:46:56;12.77;;;9.20;;
69970;SDS011;57301;50.328;8.542;2023-08-21T00:49:22;13.50;;;9.90;;
69970;SDS011;57301;50.328;8.542;2023-08-21T00:51:49;13.75;;;10.10;;
69970;SDS011;57301;50.328;8.542;2023-08-21T00:54:16;14.88;;;10.25;;
69970;SDS011;57301;50.328;8.542;2023-08-21T00:56:43;15.15;;;9.73;;
69970;SDS011;57301;50.328;8.542;2023-08-21T00:59:10;12.90;;;9.87;;
69970;SDS011;57301;50.328;8.542;2023-08-21T01:01:37;14.95;;;10.07;;
69970;SDS011;57301;50.328;8.542;2023-08-21T01:04:04;18.10;;;10.95;;
69970;SDS011;57301;50.328;8.542;2023-08-21T01:06:30;16.95;;;10.38;;
69970;SDS011;57301;50.328;8.542;2023-08-21T01:09:00;15.27;;;10.73;;
69970;SDS011;57301;50.328;8.542;2023-08-21T01:14:07;14.25;;;10.20;;
69970;SDS011;57301;50.328;8.542;2023-08-21T01:16:40;16.80;;;11.38;;
69970;SDS011;57301;50.328;8.542;2023-08-21T01:19:11;16.92;;;12.23;;
69970;SDS011;57301;50.328;8.542;2023-08-21T01:21:50;14.73;;;11.20;;
69970;SDS011;57301;50.328;8.542;2023-08-21T01:24:19;15.60;;;10.50;;
69970;SDS011;57301;50.328;8.542;2023-08-21T01:26:46;15.25;;;10.57;;
69970;SDS011;57301;50.328;8.542;2023-08-21T01:29:12;15.77;;;10.88;;
69970;SDS011;57301;50.328;8.542;2023-08-21T01:31:39;17.40;;;11.90;;
69970;SDS011;57301;50.328;8.542;2023-08-21T01:34:09;14.52;;;10.55;;
69970;SDS011;57301;50.328;8.542;2023-08-21T01:36:37;16.07;;;11.37;;
69970;SDS011;57301;50.328;8.542;2023-08-21T01:39:04;15.27;;;11.20;;
69970;SDS011;57301;50.328;8.542;2023-08-21T01:41:31;18.02;;;10.95;;
69970;SDS011;57301;50.328;8.542;2023-08-21T01:43:57;15.10;;;10.98;;
69970;SDS011;57301;50.328;8.542;2023-08-21T01:46:24;18.50;;;11.30;;
69970;SDS011;57301;50.328;8.542;2023-08-21T01:48:50;15.73;;;11.00;;
69970;SDS011;57301;50.328;8.542;2023-08-21T01:51:17;15.90;;;11.55;;
69970;SDS011;57301;50.328;8.542;2023-08-21T01:53:43;16.15;;;11.60;;
69970;SDS011;57301;50.328;8.542;2023-08-21T01:56:10;18.35;;;11.40;;
69970;SDS011;57301;50.328;8.542;2023-08-21T01:58:36;17.27;;;11.75;;
69970;SDS011;57301;50.328;8.542;2023-08-21T02:01:02;14.53;;;10.73;;
69970;SDS011;57301;50.328;8.542;2023-08-21T02:03:31;16.45;;;10.80;;
69970;SDS011;57301;50.328;8.542;2023-08-21T02:05:57;16.42;;;11.48;;
69970;SDS011;57301;50.328;8.542;2023-08-21T02:08:25;16.27;;;11.40;;
69970;SDS011;57301;50.328;8.542;2023-08-21T02:10:56;14.98;;;11.13;;
69970;SDS011;57301;50.328;8.542;2023-08-21T02:13:23;17.07;;;11.23;;
69970;SDS011;57301;50.328;8.542;2023-08-21T02:15:49;17.73;;;11.73;;
69970;SDS011;57301;50.328;8.542;2023-08-21T02:18:16;15.85;;;10.73;;
69970;SDS011;57301;50.328;8.542;2023-08-21T02:20:42;14.90;;;10.32;;
69970;SDS011;57301;50.328;8.542;2023-08-21T02:23:09;18.95;;;11.05;;
69970;SDS011;57301;50.328;8.542;2023-08-21T02:25:35;14.53;;;10.73;;
69970;SDS011;57301;50.328;8.542;2023-08-21T02:28:02;17.83;;;11.07;;
69970;SDS011;57301;50.328;8.542;2023-08-21T02:30:30;20.45;;;11.52;;
69970;SDS011;57301;50.328;8.542;2023-08-21T02:32:57;14.80;;;11.45;;
69970;SDS011;57301;50.328;8.542;2023-08-21T02:35:23;16.90;;;11.43;;
69970;SDS011;57301;50.328;8.542;2023-08-21T02:37:50;16.93;;;11.17;;
69970;SDS011;57301;50.328;8.542;2023-08-21T02:40:16;15.73;;;11.00;;
69970;SDS011;57301;50.328;8.542;2023-08-21T02:42:43;15.45;;;11.15;;
69970;SDS011;57301;50.328;8.542;2023-08-21T02:45:09;14.65;;;11.05;;
69970;SDS011;57301;50.328;8.542;2023-08-21T02:47:39;15.32;;;11.20;;
69970;SDS011;57301;50.328;8.542;2023-08-21T02:50:09;18.57;;;12.20;;
69970;SDS011;57301;50.328;8.542;2023-08-21T02:52:36;15.95;;;11.27;;
69970;SDS011;57301;50.328;8.542;2023-08-21T02:55:04;15.32;;;11.23;;
69970;SDS011;57301;50.328;8.542;2023-08-21T02:57:31;17.10;;;10.52;;
69970;SDS011;57301;50.328;8.542;2023-08-21T02:59:58;15.13;;;11.00;;
69970;SDS011;57301;50.328;8.542;2023-08-21T03:02:24;16.20;;;12.23;;
69970;SDS011;57301;50.328;8.542;2023-08-21T03:04:51;31.55;;;19.20;;
69970;SDS011;57301;50.328;8.542;2023-08-21T03:07:18;22.13;;;13.77;;
69970;SDS011;57301;50.328;8.542;2023-08-21T03:09:45;16.45;;;11.55;;
69970;SDS011;57301;50.328;8.542;2023-08-21T03:12:15;16.42;;;11.82;;
69970;SDS011;57301;50.328;8.542;2023-08-21T03:14:42;13.63;;;10.00;;
69970;SDS011;57301;50.328;8.542;2023-08-21T03:17:08;13.85;;;10.68;;
69970;SDS011;57301;50.328;8.542;2023-08-21T03:19:35;14.23;;;10.10;;
69970;SDS011;57301;50.328;8.542;2023-08-21T03:22:01;13.20;;;10.13;;
69970;SDS011;57301;50.328;8.542;2023-08-21T03:24:28;12.07;;;9.70;;
69970;SDS011;57301;50.328;8.542;2023-08-21T03:26:54;13.63;;;9.30;;
69970;SDS011;57301;50.328;8.542;2023-08-21T03:29:21;14.90;;;10.40;;
69970;SDS011;57301;50.328;8.542;2023-08-21T03:31:49;14.70;;;10.40;;
69970;SDS011;57301;50.328;8.542;2023-08-21T03:34:15;15.63;;;10.70;;
69970;SDS011;57301;50.328;8.542;2023-08-21T03:36:42;17.10;;;10.43;;
69970;SDS011;57301;50.328;8.542;2023-08-21T03:39:08;17.03;;;11.00;;
69970;SDS011;57301;50.328;8.542;2023-08-21T03:41:35;16.30;;;10.73;;
69970;SDS011;57301;50.328;8.542;2023-08-21T03:44:01;16.30;;;10.65;;
69970;SDS011;57301;50.328;8.542;2023-08-21T03:46:28;15.52;;;10.60;;
69970;SDS011;57301;50.328;8.542;2023-08-21T03:48:54;15.73;;;11.07;;
69970;SDS011;57301;50.328;8.542;2023-08-21T03:51:21;15.93;;;11.20;;
69970;SDS011;57301;50.328;8.542;2023-08-21T03:53:48;14.43;;;11.43;;
69970;SDS011;57301;50.328;8.542;2023-08-21T03:56:16;16.42;;;11.95;;
69970;SDS011;57301;50.328;8.542;2023-08-21T03:58:42;17.55;;;11.45;;
69970;SDS011;57301;50.328;8.542;2023-08-21T04:01:08;17.00;;;11.90;;
69970;SDS011;57301;50.328;8.542;2023-08-21T04:03:35;14.67;;;10.00;;
69970;SDS011;57301;50.328;8.542;2023-08-21T04:06:01;14.60;;;10.35;;
69970;SDS011;57301;50.328;8.542;2023-08-21T04:08:28;18.67;;;11.00;;
69970;SDS011;57301;50.328;8.542;2023-08-21T04:10:54;13.70;;;10.27;;
69970;SDS011;57301;50.328;8.542;2023-08-21T04:13:25;15.75;;;11.18;;
69970;SDS011;57301;50.328;8.542;2023-08-21T04:15:53;16.60;;;11.00;;
69970;SDS011;57301;50.328;8.542;2023-08-21T04:18:20;16.77;;;11.48;;
69970;SDS011;57301;50.328;8.542;2023-08-21T04:21:04;16.38;;;11.38;;
69970;SDS011;57301;50.328;8.542;2023-08-21T04:23:31;16.67;;;11.80;;
69970;SDS011;57301;50.328;8.542;2023-08-21T04:26:01;16.35;;;11.25;;
69970;SDS011;57301;50.328;8.542;2023-08-21T04:28:32;15.70;;;11.27;;
69970;SDS011;57301;50.328;8.542;2023-08-21T04:30:59;15.02;;;10.15;;
69970;SDS011;57301;50.328;8.542;2023-08-21T04:33:27;14.02;;;9.85;;
69970;SDS011;57301;50.328;8.542;2023-08-21T04:35:55;14.02;;;11.07;;
69970;SDS011;57301;50.328;8.542;2023-08-21T04:38:22;14.68;;;9.95;;
69970;SDS011;57301;50.328;8.542;2023-08-21T04:40:49;15.53;;;10.40;;
69970;SDS011;57301;50.328;8.542;2023-08-21T04:43:15;16.65;;;10.20;;
69970;SDS011;57301;50.328;8.542;2023-08-21T04:45:48;13.82;;;10.20;;
69970;SDS011;57301;50.328;8.542;2023-08-21T04:48:19;14.27;;;9.95;;
69970;SDS011;57301;50.328;8.542;2023-08-21T04:50:46;14.88;;;11.10;;
69970;SDS011;57301;50.328;8.542;2023-08-21T04:53:13;14.93;;;10.60;;
69970;SDS011;57301;50.328;8.542;2023-08-21T04:55:40;15.43;;;11.05;;
69970;SDS011;57301;50.328;8.542;2023-08-21T04:58:07;15.60;;;11.05;;
69970;SDS011;57301;50.328;8.542;2023-08-21T05:00:34;14.88;;;9.77;;
69970;SDS011;57301;50.328;8.542;2023-08-21T05:03:01;16.02;;;10.35;;
69970;SDS011;57301;50.328;8.542;2023-08-21T05:05:27;15.67;;;11.10;;
69970;SDS011;57301;50.328;8.542;2023-08-21T05:07:54;13.65;;;9.77;;
69970;SDS011;57301;50.328;8.542;2023-08-21T05:10:20;14.15;;;9.48;;
69970;SDS011;57301;50.328;8.542;2023-08-21T05:12:47;13.93;;;9.70;;
69970;SDS011;57301;50.328;8.542;2023-08-21T05:15:13;13.18;;;9.90;;
69970;SDS011;57301;50.328;8.542;2023-08-21T05:17:40;15.57;;;11.43;;
69970;SDS011;57301;50.328;8.542;2023-08-21T05:20:07;14.40;;;10.73;;
69970;SDS011;57301;50.328;8.542;2023-08-21T05:22:34;18.08;;;11.88;;
69970;SDS011;57301;50.328;8.542;2023-08-21T05:25:01;19.38;;;11.45;;
69970;SDS011;57301;50.328;8.542;2023-08-21T05:27:27;16.42;;;11.98;;
69970;SDS011;57301;50.328;8.542;2023-08-21T05:29:54;19.73;;;13.33;;
69970;SDS011;57301;50.328;8.542;2023-08-21T05:32:20;17.17;;;12.93;;
69970;SDS011;57301;50.328;8.542;2023-08-21T05:34:47;17.60;;;12.45;;
69970;SDS011;57301;50.328;8.542;2023-08-21T05:37:13;16.17;;;11.80;;
69970;SDS011;57301;50.328;8.542;2023-08-21T05:39:39;16.42;;;12.68;;
69970;SDS011;57301;50.328;8.542;2023-08-21T05:42:12;15.90;;;11.70;;
69970;SDS011;57301;50.328;8.542;2023-08-21T05:44:38;14.07;;;11.25;;
69970;SDS011;57301;50.328;8.542;2023-08-21T05:47:07;14.10;;;10.57;;
69970;SDS011;57301;50.328;8.542;2023-08-21T05:49:34;13.68;;;10.07;;
69970;SDS011;57301;50.328;8.542;2023-08-21T05:52:00;11.60;;;9.23;;
69970;SDS011;57301;50.328;8.542;2023-08-21T05:54:27;11.23;;;9.23;;
69970;SDS011;57301;50.328;8.542;2023-08-21T05:56:54;13.30;;;9.75;;
69970;SDS011;57301;50.328;8.542;2023-08-21T05:59:27;16.25;;;9.25;;
69970;SDS011;57301;50.328;8.542;2023-08-21T06:01:57;12.20;;;8.95;;
69970;SDS011;57301;50.328;8.542;2023-08-21T06:04:24;10.50;;;9.20;;
69970;SDS011;57301;50.328;8.542;2023-08-21T06:06:51;12.40;;;9.13;;
69970;SDS011;57301;50.328;8.542;2023-08-21T06:09:18;11.90;;;9.43;;
69970;SDS011;57301;50.328;8.542;2023-08-21T06:11:45;14.18;;;9.30;;
69970;SDS011;57301;50.328;8.542;2023-08-21T06:14:14;11.55;;;9.20;;
69970;SDS011;57301;50.328;8.542;2023-08-21T06:16:40;10.63;;;9.13;;
69970;SDS011;57301;50.328;8.542;2023-08-21T06:19:07;12.83;;;8.97;;
69970;SDS011;57301;50.328;8.542;2023-08-21T06:21:33;12.95;;;9.48;;
69970;SDS011;57301;50.328;8.542;2023-08-21T06:24:00;10.00;;;8.82;;
69970;SDS011;57301;50.328;8.542;2023-08-21T06:26:26;13.05;;;8.77;;
69970;SDS011;57301;50.328;8.542;2023-08-21T06:28:53;13.50;;;9.68;;
69970;SDS011;57301;50.328;8.542;2023-08-21T06:31:19;11.73;;;9.33;;
69970;SDS011;57301;50.328;8.542;2023-08-21T06:33:46;11.90;;;9.27;;
69970;SDS011;57301;50.328;8.542;2023-08-21T06:36:13;10.70;;;8.43;;
69970;SDS011;57301;50.328;8.542;2023-08-21T06:38:39;9.65;;;8.70;;
69970;SDS011;57301;50.328;8.542;2023-08-21T06:41:06;11.65;;;8.50;;
69970;SDS011;57301;50.328;8.542;2023-08-21T06:43:37;14.30;;;8.43;;
69970;SDS011;57301;50.328;8.542;2023-08-21T06:46:12;10.07;;;8.73;;
69970;SDS011;57301;50.328;8.542;2023-08-21T06:49:24;9.88;;;8.50;;
69970;SDS011;57301;50.328;8.542;2023-08-21T06:51:51;10.70;;;8.00;;
69970;SDS011;57301;50.328;8.542;2023-08-21T06:54:17;10.40;;;7.88;;
69970;SDS011;57301;50.328;8.542;2023-08-21T06:56:44;11.57;;;8.10;;
69970;SDS011;57301;50.328;8.542;2023-08-21T06:59:10;13.23;;;10.30;;
69970;SDS011;57301;50.328;8.542;2023-08-21T07:01:37;9.07;;;7.45;;
69970;SDS011;57301;50.328;8.542;2023-08-21T07:04:03;8.50;;;6.75;;
69970;SDS011;57301;50.328;8.542;2023-08-21T07:06:30;10.90;;;9.25;;
69970;SDS011;57301;50.328;8.542;2023-08-21T07:08:57;8.63;;;7.43;;
69970;SDS011;57301;50.328;8.542;2023-08-21T07:11:23;7.47;;;6.65;;
69970;SDS011;57301;50.328;8.542;2023-08-21T07:13:50;10.70;;;7.35;;
69970;SDS011;57301;50.328;8.542;2023-08-21T07:16:16;10.15;;;6.68;;
69970;SDS011;57301;50.328;8.542;2023-08-21T07:18:43;7.18;;;6.05;;
69970;SDS011;57301;50.328;8.542;2023-08-21T07:21:09;15.70;;;12.87;;
69970;SDS011;57301;50.328;8.542;2023-08-21T07:23:56;7.88;;;6.43;;
69970;SDS011;57301;50.328;8.542;2023-08-21T07:26:22;15.45;;;11.63;;
69970;SDS011;57301;50.328;8.542;2023-08-21T07:28:49;9.27;;;7.47;;
69970;SDS011;57301;50.328;8.542;2023-08-21T07:31:15;7.70;;;6.47;;
69970;SDS011;57301;50.328;8.542;2023-08-21T07:33:42;10.97;;;7.00;;
69970;SDS011;57301;50.328;8.542;2023-08-21T07:36:09;9.00;;;6.63;;
69970;SDS011;57301;50.328;8.542;2023-08-21T07:38:35;8.60;;;6.40;;
69970;SDS011;57301;50.328;8.542;2023-08-21T07:41:02;8.88;;;6.82;;
69970;SDS011;57301;50.328;8.542;2023-08-21T07:43:37;10.93;;;7.07;;
69970;SDS011;57301;50.328;8.542;2023-08-21T07:46:05;8.47;;;6.77;;
69970;SDS011;57301;50.328;8.542;2023-08-21T07:48:33;8.43;;;6.88;;
69970;SDS011;57301;50.328;8.542;2023-08-21T07:51:01;8.02;;;7.00;;
69970;SDS011;57301;50.328;8.542;2023-08-21T07:53:28;9.40;;;6.15;;
69970;SDS011;57301;50.328;8.542;2023-08-21T07:55:56;10.27;;;6.90;;
69970;SDS011;57301;50.328;8.542;2023-08-21T07:58:22;8.40;;;6.37;;
69970;SDS011;57301;50.328;8.542;2023-08-21T08:00:49;7.95;;;6.70;;
69970;SDS011;57301;50.328;8.542;2023-08-21T08:03:15;8.55;;;6.90;;
69970;SDS011;57301;50.328;8.542;2023-08-21T08:05:42;8.35;;;6.60;;
69970;SDS011;57301;50.328;8.542;2023-08-21T08:08:20;8.85;;;6.43;;
69970;SDS011;57301;50.328;8.542;2023-08-21T08:10:46;8.23;;;6.30;;
69970;SDS011;57301;50.328;8.542;2023-08-21T08:13:13;8.20;;;6.45;;
69970;SDS011;57301;50.328;8.542;2023-08-21T08:15:39;8.23;;;6.75;;
69970;SDS011;57301;50.328;8.542;2023-08-21T08:18:10;7.05;;;6.32;;
69970;SDS011;57301;50.328;8.542;2023-08-21T08:20:37;7.75;;;6.13;;
69970;SDS011;57301;50.328;8.542;2023-08-21T08:23:04;8.63;;;6.67;;
69970;SDS011;57301;50.328;8.542;2023-08-21T08:25:30;8.95;;;7.03;;
69970;SDS011;57301;50.328;8.542;2023-08-21T08:27:57;8.20;;;6.55;;
69970;SDS011;57301;50.328;8.542;2023-08-21T08:30:23;11.57;;;9.20;;
69970;SDS011;57301;50.328;8.542;2023-08-21T08:32:50;7.97;;;6.70;;
69970;SDS011;57301;50.328;8.542;2023-08-21T08:35:16;9.03;;;6.40;;
69970;SDS011;57301;50.328;8.542;2023-08-21T08:37:43;8.50;;;6.60;;
69970;SDS011;57301;50.328;8.542;2023-08-21T08:40:10;7.82;;;6.53;;
69970;SDS011;57301;50.328;8.542;2023-08-21T08:42:38;7.20;;;6.20;;
69970;SDS011;57301;50.328;8.542;2023-08-21T08:45:05;10.35;;;5.63;;
69970;SDS011;57301;50.328;8.542;2023-08-21T08:47:32;9.37;;;6.00;;
69970;SDS011;57301;50.328;8.542;2023-08-21T08:50:02;7.63;;;5.88;;
69970;SDS011;57301;50.328;8.542;2023-08-21T08:52:35;10.63;;;6.43;;
69970;SDS011;57301;50.328;8.542;2023-08-21T08:55:06;7.40;;;5.78;;
69970;SDS011;57301;50.328;8.542;2023-08-21T08:57:33;6.65;;;5.95;;
69970;SDS011;57301;50.328;8.542;2023-08-21T09:00:01;9.27;;;6.37;;
69970;SDS011;57301;50.328;8.542;2023-08-21T09:02:29;10.38;;;8.65;;
69970;SDS011;57301;50.328;8.542;2023-08-21T09:04:55;11.48;;;6.90;;
69970;SDS011;57301;50.328;8.542;2023-08-21T09:07:21;9.05;;;6.00;;
69970;SDS011;57301;50.328;8.542;2023-08-21T09:09:48;6.55;;;5.47;;
69970;SDS011;57301;50.328;8.542;2023-08-21T09:12:16;8.13;;;5.13;;
69970;SDS011;57301;50.328;8.542;2023-08-21T09:14:44;8.80;;;5.20;;
69970;SDS011;57301;50.328;8.542;2023-08-21T09:17:11;7.80;;;5.40;;
69970;SDS011;57301;50.328;8.542;2023-08-21T09:19:38;8.48;;;5.20;;
69970;SDS011;57301;50.328;8.542;2023-08-21T09:22:12;6.95;;;5.20;;
69970;SDS011;57301;50.328;8.542;2023-08-21T09:24:41;6.63;;;5.03;;
69970;SDS011;57301;50.328;8.542;2023-08-21T09:27:26;7.38;;;5.03;;
69970;SDS011;57301;50.328;8.542;2023-08-21T09:29:53;7.32;;;5.05;;
69970;SDS011;57301;50.328;8.542;2023-08-21T09:32:19;6.75;;;4.95;;
69970;SDS011;57301;50.328;8.542;2023-08-21T09:34:46;8.15;;;4.93;;
69970;SDS011;57301;50.328;8.542;2023-08-21T09:37:12;6.90;;;4.53;;
69970;SDS011;57301;50.328;8.542;2023-08-21T09:39:39;6.10;;;4.80;;
69970;SDS011;57301;50.328;8.542;2023-08-21T09:42:06;4.55;;;2.80;;
69970;SDS011;57301;50.328;8.542;2023-08-21T09:44:35;5.30;;;2.42;;
69970;SDS011;57301;50.328;8.542;2023-08-21T09:47:02;3.95;;;2.50;;
69970;SDS011;57301;50.328;8.542;2023-08-21T09:49:30;4.63;;;2.60;;
69970;SDS011;57301;50.328;8.542;2023-08-21T09:51:58;4.32;;;2.75;;
69970;SDS011;57301;50.328;8.542;2023-08-21T09:54:25;3.90;;;2.63;;
69970;SDS011;57301;50.328;8.542;2023-08-21T09:56:52;3.90;;;2.20;;
69970;SDS011;57301;50.328;8.542;2023-08-21T09:59:18;4.07;;;2.20;;
69970;SDS011;57301;50.328;8.542;2023-08-21T10:01:45;3.23;;;1.97;;
69970;SDS011;57301;50.328;8.542;2023-08-21T10:04:16;3.25;;;1.80;;
69970;SDS011;57301;50.328;8.542;2023-08-21T10:06:44;2.92;;;1.85;;
69970;SDS011;57301;50.328;8.542;2023-08-21T10:09:12;3.67;;;1.52;;
69970;SDS011;57301;50.328;8.542;2023-08-21T10:11:40;3.78;;;1.40;;
69970;SDS011;57301;50.328;8.542;2023-08-21T10:14:08;3.50;;;1.90;;
69970;SDS011;57301;50.328;8.542;2023-08-21T10:16:35;4.13;;;2.17;;
69970;SDS011;57301;50.328;8.542;2023-08-21T10:19:02;4.68;;;2.05;;
69970;SDS011;57301;50.328;8.542;2023-08-21T10:21:35;3.50;;;2.35;;
69970;SDS011;57301;50.328;8.542;2023-08-21T10:24:03;9.48;;;3.22;;
69970;SDS011;57301;50.328;8.542;2023-08-21T10:26:30;6.50;;;2.77;;
69970;SDS011;57301;50.328;8.542;2023-08-21T10:29:00;3.45;;;2.38;;
69970;SDS011;57301;50.328;8.542;2023-08-21T10:31:39;3.65;;;2.40;;
69970;SDS011;57301;50.328;8.542;2023-08-21T10:34:07;4.40;;;2.70;;
69970;SDS011;57301;50.328;8.542;2023-08-21T10:36:38;5.65;;;2.63;;
69970;SDS011;57301;50.328;8.542;2023-08-21T10:39:15;4.00;;;2.73;;
69970;SDS011;57301;50.328;8.542;2023-08-21T10:41:53;8.73;;;6.35;;
69970;SDS011;57301;50.328;8.542;2023-08-21T10:47:22;5.53;;;2.70;;
69970;SDS011;57301;50.328;8.542;2023-08-21T10:52:24;3.97;;;2.67;;
69970;SDS011;57301;50.328;8.542;2023-08-21T10:54:54;4.35;;;2.70;;
69970;SDS011;57301;50.328;8.542;2023-08-21T10:57:26;6.00;;;3.03;;
69970;SDS011;57301;50.328;8.542;2023-08-21T10:59:55;3.88;;;2.83;;
69970;SDS011;57301;50.328;8.542;2023-08-21T11:02:29;7.45;;;3.17;;
69970;SDS011;57301;50.328;8.542;2023-08-21T11:04:57;6.00;;;3.20;;
69970;SDS011;57301;50.328;8.542;2023-08-21T11:07:24;4.10;;;2.95;;
69970;SDS011;57301;50.328;8.542;2023-08-21T11:09:51;6.22;;;3.03;;
69970;SDS011;57301;50.328;8.542;2023-08-21T11:12:19;4.60;;;3.28;;
69970;SDS011;57301;50.328;8.542;2023-08-21T11:14:49;5.47;;;3.38;;
69970;SDS011;57301;50.328;8.542;2023-08-21T11:17:16;6.77;;;3.30;;
69970;SDS011;57301;50.328;8.542;2023-08-21T11:19:46;5.15;;;2.80;;
69970;SDS011;57301;50.328;8.542;2023-08-21T11:22:15;4.85;;;2.60;;
69970;SDS011;57301;50.328;8.542;2023-08-21T11:24:45;3.20;;;2.08;;
69970;SDS011;57301;50.328;8.542;2023-08-21T11:27:16;4.13;;;2.20;;
69970;SDS011;57301;50.328;8.542;2023-08-21T11:29:45;3.60;;;2.10;;
69970;SDS011;57301;50.328;8.542;2023-08-21T11:32:17;12.10;;;8.63;;
69970;SDS011;57301;50.328;8.542;2023-08-21T11:34:48;3.60;;;2.30;;
69970;SDS011;57301;50.328;8.542;2023-08-21T11:37:19;4.38;;;2.10;;
69970;SDS011;57301;50.328;8.542;2023-08-21T11:39:49;5.50;;;1.90;;
69970;SDS011;57301;50.328;8.542;2023-08-21T11:42:19;3.10;;;1.70;;
69970;SDS011;57301;50.328;8.542;2023-08-21T11:44:47;4.05;;;1.90;;
69970;SDS011;57301;50.328;8.542;2023-08-21T11:47:21;3.83;;;2.15;;
69970;SDS011;57301;50.328;8.542;2023-08-21T11:49:52;5.30;;;2.30;;
69970;SDS011;57301;50.328;8.542;2023-08-21T11:52:20;3.75;;;2.30;;
69970;SDS011;57301;50.328;8.542;2023-08-21T11:54:48;4.63;;;2.57;;
69970;SDS011;57301;50.328;8.542;2023-08-21T11:57:16;4.95;;;2.47;;
69970;SDS011;57301;50.328;8.542;2023-08-21T11:59:43;4.00;;;2.65;;
69970;SDS011;57301;50.328;8.542;2023-08-21T12:02:17;6.10;;;4.07;;
69970;SDS011;57301;50.328;8.542;2023-08-21T12:07:20;4.00;;;2.53;;
69970;SDS011;57301;50.328;8.542;2023-08-21T12:09:47;4.00;;;2.78;;
69970;SDS011;57301;50.328;8.542;2023-08-21T12:12:16;4.95;;;2.60;;
69970;SDS011;57301;50.328;8.542;2023-08-21T12:14:43;5.80;;;2.90;;
69970;SDS011;57301;50.328;8.542;2023-08-21T12:17:10;4.40;;;2.80;;
69970;SDS011;57301;50.328;8.542;2023-08-21T12:19:36;4.27;;;3.07;;
69970;SDS011;57301;50.328;8.542;2023-08-21T12:22:03;4.90;;;2.67;;
69970;SDS011;57301;50.328;8.542;2023-08-21T12:24:30;4.43;;;2.88;;
69970;SDS011;57301;50.328;8.542;2023-08-21T12:26:57;4.20;;;2.50;;
69970;SDS011;57301;50.328;8.542;2023-08-21T12:29:27;5.03;;;2.50;;
69970;SDS011;57301;50.328;8.542;2023-08-21T12:32:02;4.30;;;2.80;;
69970;SDS011;57301;50.328;8.542;2023-08-21T12:35:29;4.65;;;3.05;;
69970;SDS011;57301;50.328;8.542;2023-08-21T12:37:58;4.80;;;2.95;;
69970;SDS011;57301;50.328;8.542;2023-08-21T12:40:31;5.00;;;2.67;;
69970;SDS011;57301;50.328;8.542;2023-08-21T12:42:58;7.57;;;3.03;;
69970;SDS011;57301;50.328;8.542;2023-08-21T12:45:25;4.73;;;3.00;;
69970;SDS011;57301;50.328;8.542;2023-08-21T12:47:51;5.60;;;3.25;;
69970;SDS011;57301;50.328;8.542;2023-08-21T12:50:18;4.25;;;3.08;;
69970;SDS011;57301;50.328;8.542;2023-08-21T12:52:45;5.53;;;3.80;;
69970;SDS011;57301;50.328;8.542;2023-08-21T12:55:12;7.35;;;4.40;;
69970;SDS011;57301;50.328;8.542;2023-08-21T12:57:40;8.97;;;4.77;;
69970;SDS011;57301;50.328;8.542;2023-08-21T13:00:06;6.60;;;4.43;;
69970;SDS011;57301;50.328;8.542;2023-08-21T13:02:34;11.35;;;4.88;;
69970;SDS011;57301;50.328;8.542;2023-08-21T13:05:01;6.82;;;4.00;;
69970;SDS011;57301;50.328;8.542;2023-08-21T13:07:27;7.05;;;4.47;;
69970;SDS011;57301;50.328;8.542;2023-08-21T13:09:54;4.73;;;3.90;;
69970;SDS011;57301;50.328;8.542;2023-08-21T13:12:20;5.72;;;3.80;;
69970;SDS011;57301;50.328;8.542;2023-08-21T13:14:47;6.18;;;4.78;;
69970;SDS011;57301;50.328;8.542;2023-08-21T13:17:15;6.97;;;4.10;;
69970;SDS011;57301;50.328;8.542;2023-08-21T13:19:41;6.63;;;4.00;;
69970;SDS011;57301;50.328;8.542;2023-08-21T13:22:08;5.47;;;3.90;;
69970;SDS011;57301;50.328;8.542;2023-08-21T13:24:34;8.10;;;4.10;;
69970;SDS011;57301;50.328;8.542;2023-08-21T13:27:01;31.00;;;27.00;;
69970;SDS011;57301;50.328;8.542;2023-08-21T13:29:27;6.18;;;4.65;;
69970;SDS011;57301;50.328;8.542;2023-08-21T13:31:54;6.82;;;3.90;;
69970;SDS011;57301;50.328;8.542;2023-08-21T13:34:20;5.73;;;3.67;;
69970;SDS011;57301;50.328;8.542;2023-08-21T13:36:47;5.50;;;3.80;;
69970;SDS011;57301;50.328;8.542;2023-08-21T13:39:13;5.32;;;4.28;;
69970;SDS011;57301;50.328;8.542;2023-08-21T13:41:41;6.38;;;3.92;;
69970;SDS011;57301;50.328;8.542;2023-08-21T13:44:08;5.25;;;3.60;;
69970;SDS011;57301;50.328;8.542;2023-08-21T13:46:35;5.57;;;3.83;;
69970;SDS011;57301;50.328;8.542;2023-08-21T13:49:01;6.85;;;4.10;;
69970;SDS011;57301;50.328;8.542;2023-08-21T13:51:28;7.55;;;4.35;;
69970;SDS011;57301;50.328;8.542;2023-08-21T13:53:54;7.97;;;4.65;;
69970;SDS011;57301;50.328;8.542;2023-08-21T13:56:21;8.48;;;4.25;;
69970;SDS011;57301;50.328;8.542;2023-08-21T13:58:47;5.70;;;4.60;;
69970;SDS011;57301;50.328;8.542;2023-08-21T14:01:14;5.32;;;4.35;;
69970;SDS011;57301;50.328;8.542;2023-08-21T14:03:41;7.05;;;4.28;;
69970;SDS011;57301;50.328;8.542;2023-08-21T14:06:08;5.45;;;4.22;;
69970;SDS011;57301;50.328;8.542;2023-08-21T14:08:38;6.25;;;4.40;;
69970;SDS011;57301;50.328;8.542;2023-08-21T14:11:04;6.20;;;4.30;;
69970;SDS011;57301;50.328;8.542;2023-08-21T14:13:31;5.38;;;4.18;;
69970;SDS011;57301;50.328;8.542;2023-08-21T14:15:57;4.90;;;4.25;;
69970;SDS011;57301;50.328;8.542;2023-08-21T14:18:24;5.80;;;4.20;;
69970;SDS011;57301;50.328;8.542;2023-08-21T14:20:50;6.32;;;4.20;;
69970;SDS011;57301;50.328;8.542;2023-08-21T14:23:17;5.83;;;3.93;;
69970;SDS011;57301;50.328;8.542;2023-08-21T14:25:43;6.07;;;4.20;;
69970;SDS011;57301;50.328;8.542;2023-08-21T14:28:09;5.78;;;4.30;;
69970;SDS011;57301;50.328;8.542;2023-08-21T14:30:36;5.95;;;3.78;;
69970;SDS011;57301;50.328;8.542;2023-08-21T14:33:03;7.07;;;4.00;;
69970;SDS011;57301;50.328;8.542;2023-08-21T14:35:29;5.87;;;4.27;;
69970;SDS011;57301;50.328;8.542;2023-08-21T14:37:56;5.80;;;4.00;;
69970;SDS011;57301;50.328;8.542;2023-08-21T14:40:22;7.30;;;4.40;;
69970;SDS011;57301;50.328;8.542;2023-08-21T14:42:52;8.32;;;3.95;;
69970;SDS011;57301;50.328;8.542;2023-08-21T14:45:19;5.07;;;4.22;;
69970;SDS011;57301;50.328;8.542;2023-08-21T14:47:45;6.73;;;4.30;;
69970;SDS011;57301;50.328;8.542;2023-08-21T14:50:12;6.37;;;3.90;;